Time;durP1;ratioP1;P1;durP2;ratioP2;P2;SDS_P1;SDS_P2;PMS_P1;PMS_P2;Temp;Humidity;BMP_temperature;BMP_pressure;BME280_temperature;BME280_humidity;BME280_pressure;Samples;Min_cycle;Max_cycle;Signal;HPM_P1;HPM_P2
2021/12/30 00:01:13;;;;;;;52.20;10.55;;;9.60;99.90;;;;;;5074164;28;20024;-73
2021/12/30 00:03:40;;;;;;;68.00;11.10;;;9.60;99.90;;;;;;5072746;28;20100;-72
2021/12/30 00:06:06;;;;;;;56.15;10.50;;;9.60;99.90;;;;;;5072728;28;20035;-72
2021/12/30 00:08:32;;;;;;;54.88;9.13;;;9.60;99.90;;;;;;5073838;28;20090;-72
2021/12/30 00:10:58;;;;;;;58.53;9.65;;;9.70;99.90;;;;;;5073828;28;20051;-73
2021/12/30 00:13:24;;;;;;;67.75;10.63;;;9.70;99.90;;;;;;5080327;28;20105;-72
2021/12/30 00:15:51;;;;;;;61.83;10.50;;;9.70;99.90;;;;;;5094002;28;20502;-72
2021/12/30 00:18:18;;;;;;;74.30;11.65;;;9.80;99.90;;;;;;5093906;28;20028;-72
2021/12/30 00:20:44;;;;;;;69.95;12.32;;;9.90;99.90;;;;;;5093723;28;20035;-72
2021/12/30 00:23:10;;;;;;;55.25;11.45;;;9.90;99.90;;;;;;5093847;28;20020;-73
2021/12/30 00:25:41;;;;;;;72.57;13.40;;;10.00;99.90;;;;;;5093753;28;20502;-72
2021/12/30 00:28:16;;;;;;;79.82;14.40;;;10.10;99.90;;;;;;5093602;28;20032;-72
2021/12/30 00:30:43;;;;;;;76.55;13.95;;;10.20;99.90;;;;;;5093685;28;20024;-72
2021/12/30 00:33:09;;;;;;;71.13;13.57;;;10.20;99.90;;;;;;5093706;28;20027;-72
2021/12/30 00:35:35;;;;;;;70.20;13.10;;;10.20;99.90;;;;;;5093563;28;20093;-72
2021/12/30 00:38:02;;;;;;;73.28;14.60;;;10.40;99.90;;;;;;5093591;28;20111;-72
2021/12/30 00:40:28;;;;;;;69.28;14.48;;;10.40;99.90;;;;;;5093422;28;20054;-72
2021/12/30 00:42:54;;;;;;;70.57;16.05;;;10.40;99.90;;;;;;5093453;28;20489;-72
2021/12/30 00:45:20;;;;;;;70.35;14.93;;;10.50;99.90;;;;;;5093501;28;20057;-72
2021/12/30 00:47:45;;;;;;;82.78;16.42;;;10.60;99.90;;;;;;5074675;28;20020;-72
2021/12/30 00:50:12;;;;;;;79.22;16.27;;;10.70;99.90;;;;;;5082177;28;20024;-73
2021/12/30 00:52:38;;;;;;;67.03;16.00;;;10.70;99.90;;;;;;5071666;28;20068;-71
2021/12/30 00:55:05;;;;;;;70.30;16.23;;;10.80;99.90;;;;;;5072988;28;20031;-71
2021/12/30 00:57:31;;;;;;;87.07;17.95;;;10.90;99.90;;;;;;5072953;28;20508;-71
2021/12/30 00:59:56;;;;;;;79.13;15.98;;;10.90;99.90;;;;;;5072856;28;20033;-71
2021/12/30 01:02:22;;;;;;;63.38;15.15;;;10.90;99.90;;;;;;5092651;28;20028;-71
2021/12/30 01:04:47;;;;;;;82.30;16.90;;;10.90;99.90;;;;;;5092880;28;20557;-71
2021/12/30 01:07:13;;;;;;;64.75;17.23;;;10.90;99.90;;;;;;5093067;28;20031;-71
2021/12/30 01:09:39;;;;;;;62.33;15.98;;;10.90;99.90;;;;;;5092842;28;20035;-71
2021/12/30 01:12:06;;;;;;;68.05;16.75;;;11.00;99.90;;;;;;5093087;28;20027;-71
2021/12/30 01:14:35;;;;;;;61.83;15.45;;;11.00;99.90;;;;;;5092765;28;20647;-71
2021/12/30 01:17:13;;;;;;;80.95;16.63;;;11.10;99.90;;;;;;5074553;28;20043;-71
2021/12/30 01:19:42;;;;;;;68.75;17.42;;;11.20;99.90;;;;;;5092444;28;20028;-71
2021/12/30 01:22:17;;;;;;;72.05;18.85;;;11.20;99.90;;;;;;5074533;28;20099;-71
2021/12/30 01:24:44;;;;;;;68.38;16.65;;;11.20;99.90;;;;;;5074147;28;20024;-71
2021/12/30 01:27:10;;;;;;;69.43;16.98;;;11.20;99.90;;;;;;5092780;28;20016;-71
2021/12/30 01:29:36;;;;;;;65.03;17.75;;;11.20;99.90;;;;;;5092252;28;20052;-71
2021/12/30 01:32:03;;;;;;;73.70;17.88;;;11.30;99.90;;;;;;5092693;28;20424;-71
2021/12/30 01:34:29;;;;;;;68.60;16.65;;;11.30;99.90;;;;;;5092500;28;20028;-71
2021/12/30 01:36:55;;;;;;;69.95;17.65;;;11.30;99.90;;;;;;5092452;28;20024;-71
2021/12/30 01:39:22;;;;;;;70.22;19.60;;;11.40;99.90;;;;;;5092333;28;20682;-71
2021/12/30 01:41:49;;;;;;;74.57;16.73;;;11.30;99.90;;;;;;5092387;28;20367;-71
2021/12/30 01:44:15;;;;;;;73.07;18.38;;;11.40;99.90;;;;;;5092271;28;20459;-71
2021/12/30 01:46:44;;;;;;;65.97;17.05;;;11.50;99.90;;;;;;5092410;28;20034;-71
2021/12/30 01:49:12;;;;;;;68.82;17.05;;;11.50;99.90;;;;;;5071521;28;20478;-71
2021/12/30 01:51:39;;;;;;;74.82;17.67;;;11.50;99.90;;;;;;5072131;28;20044;-71
2021/12/30 01:54:05;;;;;;;67.85;16.38;;;11.50;99.90;;;;;;5071878;28;20420;-71
2021/12/30 01:56:31;;;;;;;67.75;17.42;;;11.50;99.90;;;;;;5071969;28;20322;-71
2021/12/30 01:58:57;;;;;;;66.35;15.02;;;11.50;99.90;;;;;;5071394;28;20160;-71
2021/12/30 02:01:23;;;;;;;68.88;17.60;;;11.60;99.90;;;;;;5071897;28;20393;-71
2021/12/30 02:03:49;;;;;;;64.07;16.58;;;11.60;99.90;;;;;;5053704;28;20025;-71
2021/12/30 02:06:15;;;;;;;77.28;17.15;;;11.70;99.90;;;;;;5071710;28;20382;-71
2021/12/30 02:08:40;;;;;;;85.30;18.40;;;11.70;99.90;;;;;;5071615;28;20028;-71
2021/12/30 02:11:07;;;;;;;77.88;18.30;;;11.80;99.90;;;;;;5071659;28;20202;-71
2021/12/30 02:13:32;;;;;;;75.55;20.60;;;11.70;99.90;;;;;;5072274;28;20467;-71
2021/12/30 02:16:01;;;;;;;81.15;19.45;;;11.70;99.90;;;;;;5091942;28;20028;-71
2021/12/30 02:18:28;;;;;;;85.82;21.92;;;11.70;99.90;;;;;;5091301;28;20032;-73
2021/12/30 02:20:56;;;;;;;78.35;21.95;;;11.70;99.90;;;;;;5070035;28;20021;-73
2021/12/30 02:23:28;;;;;;;93.05;22.88;;;11.80;99.90;;;;;;5071643;28;20017;-71
2021/12/30 02:25:58;;;;;;;90.05;22.88;;;11.70;99.90;;;;;;5053352;28;20463;-71
2021/12/30 02:28:26;;;;;;;82.35;23.40;;;11.70;99.90;;;;;;5071294;28;20048;-73
2021/12/30 02:30:55;;;;;;;84.43;22.13;;;11.70;99.90;;;;;;5071601;28;20072;-71
2021/12/30 02:33:21;;;;;;;86.20;22.38;;;11.80;99.90;;;;;;5071558;28;20173;-74
2021/12/30 02:35:47;;;;;;;80.72;23.00;;;11.80;99.90;;;;;;5071413;28;20149;-71
2021/12/30 02:38:14;;;;;;;74.40;22.10;;;11.80;99.90;;;;;;5071485;28;20029;-71
2021/12/30 02:40:53;;;;;;;84.32;22.50;;;11.80;99.90;;;;;;5053244;28;20072;-71
2021/12/30 02:43:26;;;;;;;96.22;26.02;;;11.80;99.90;;;;;;5071484;28;20023;-71
2021/12/30 02:45:52;;;;;;;;;;;11.80;99.90;;;;;;5071891;28;20032;-71
2021/12/30 02:48:21;;;;;;;87.95;23.58;;;11.80;99.90;;;;;;5071302;28;19908;-71
2021/12/30 02:50:49;;;;;;;93.63;25.10;;;11.80;99.90;;;;;;5087068;28;20081;-74
2021/12/30 02:53:14;;;;;;;85.82;24.45;;;11.80;99.90;;;;;;5073504;28;20048;-73
2021/12/30 02:55:42;;;;;;;81.95;24.52;;;11.80;99.90;;;;;;5073218;28;20508;-73
2021/12/30 02:58:07;;;;;;;94.47;26.65;;;11.80;99.90;;;;;;5091458;28;20040;-73
2021/12/30 03:00:34;;;;;;;91.38;24.50;;;11.90;99.90;;;;;;5073232;28;20035;-73
2021/12/30 03:03:00;;;;;;;90.63;25.95;;;11.90;99.90;;;;;;5091327;28;20025;-73
2021/12/30 03:05:26;;;;;;;69.88;23.85;;;11.90;99.90;;;;;;5091269;28;20023;-73
2021/12/30 03:07:53;;;;;;;84.57;23.83;;;11.90;99.90;;;;;;5091310;28;20044;-73
2021/12/30 03:10:22;;;;;;;69.47;21.63;;;12.00;99.90;;;;;;5073258;28;20024;-73
2021/12/30 03:12:53;;;;;;;68.97;21.65;;;12.00;99.90;;;;;;5095192;28;20024;-73
2021/12/30 03:15:19;;;;;;;52.45;20.02;;;12.00;99.90;;;;;;5095217;28;20052;-73
2021/12/30 03:17:45;;;;;;;82.88;23.52;;;12.00;99.90;;;;;;5095167;28;20027;-73
2021/12/30 03:20:11;;;;;;;69.50;21.65;;;12.10;99.90;;;;;;5090023;28;20029;-73
2021/12/30 03:22:38;;;;;;;71.55;22.10;;;12.00;99.90;;;;;;5074802;28;20103;-73
2021/12/30 03:25:12;;;;;;;63.95;21.70;;;12.00;99.90;;;;;;5074712;28;20051;-73
2021/12/30 03:27:38;;;;;;;75.15;23.17;;;12.00;99.90;;;;;;5074646;28;20054;-73
2021/12/30 03:30:07;;;;;;;82.25;24.15;;;12.00;99.90;;;;;;5074520;28;20363;-73
2021/12/30 03:32:33;;;;;;;75.32;24.27;;;12.00;99.90;;;;;;5074521;28;20020;-73
2021/12/30 03:34:58;;;;;;;75.07;23.67;;;12.00;99.90;;;;;;5074527;28;20033;-73
2021/12/30 03:37:24;;;;;;;86.60;26.30;;;12.00;99.90;;;;;;5074497;28;20029;-73
2021/12/30 03:39:50;;;;;;;99.20;27.30;;;12.00;99.90;;;;;;5074311;28;20052;-73
2021/12/30 03:42:16;;;;;;;101.85;27.25;;;12.00;99.90;;;;;;5074472;28;20021;-72
2021/12/30 03:44:42;;;;;;;82.18;26.33;;;12.00;99.90;;;;;;5074274;28;20020;-73
2021/12/30 03:47:13;;;;;;;92.28;26.90;;;12.00;99.90;;;;;;5074291;28;20024;-73
2021/12/30 03:49:38;;;;;;;80.72;25.83;;;12.00;99.90;;;;;;5080320;28;20085;-73
2021/12/30 03:52:04;;;;;;;73.18;25.27;;;12.00;99.90;;;;;;5094662;28;20462;-73
2021/12/30 03:54:30;;;;;;;76.25;25.00;;;12.10;99.90;;;;;;5094238;28;20035;-73
2021/12/30 03:56:56;;;;;;;67.95;21.98;;;12.10;99.90;;;;;;5094510;28;20024;-73
2021/12/30 03:59:21;;;;;;;76.10;23.65;;;12.10;99.90;;;;;;5094172;28;20021;-72
2021/12/30 04:01:47;;;;;;;61.58;22.25;;;12.10;99.90;;;;;;5093983;28;20039;-73
2021/12/30 04:04:12;;;;;;;65.15;22.77;;;12.20;99.90;;;;;;5094092;28;20439;-73
2021/12/30 04:06:38;;;;;;;51.47;20.48;;;12.20;99.90;;;;;;5075887;28;20024;-72
2021/12/30 04:09:05;;;;;;;56.22;20.48;;;12.20;99.90;;;;;;5075995;28;20109;-73
2021/12/30 04:11:33;;;;;;;49.35;20.23;;;12.20;99.90;;;;;;5075781;28;20505;-73
2021/12/30 04:14:00;;;;;;;41.80;17.50;;;12.20;99.90;;;;;;5093872;28;20020;-73
2021/12/30 04:16:26;;;;;;;37.85;17.52;;;12.30;99.90;;;;;;5094108;28;20024;-73
2021/12/30 04:18:52;;;;;;;38.75;17.00;;;12.40;99.90;;;;;;5093811;28;20107;-73
2021/12/30 04:21:19;;;;;;;35.60;16.90;;;12.40;99.90;;;;;;5078995;28;20108;-73
2021/12/30 04:23:45;;;;;;;30.27;15.00;;;12.50;99.90;;;;;;5073565;28;20025;-73
2021/12/30 04:26:11;;;;;;;27.58;14.35;;;12.50;99.90;;;;;;5073493;28;20031;-73
2021/12/30 04:28:39;;;;;;;22.85;14.20;;;12.50;99.90;;;;;;5073272;28;20053;-72
2021/12/30 04:31:05;;;;;;;28.88;13.82;;;12.50;99.90;;;;;;5073377;28;20131;-73
2021/12/30 04:33:30;;;;;;;34.10;15.27;;;12.50;99.90;;;;;;5073462;28;20245;-73
2021/12/30 04:35:57;;;;;;;32.22;15.50;;;12.50;99.90;;;;;;5073324;28;20107;-73
2021/12/30 04:38:28;;;;;;;26.50;15.00;;;12.50;99.90;;;;;;5073142;28;20154;-73
2021/12/30 04:40:55;;;;;;;30.02;15.32;;;12.60;99.90;;;;;;5055252;28;20029;-73
2021/12/30 04:43:21;;;;;;;35.80;16.35;;;12.50;99.90;;;;;;5073013;28;20059;-73
2021/12/30 04:45:47;;;;;;;27.30;10.85;;;12.50;99.90;;;;;;5073155;28;20036;-73
2021/12/30 04:48:17;;;;;;;19.80;11.55;;;12.50;99.90;;;;;;5071854;28;20027;-73
2021/12/30 04:50:46;;;;;;;22.08;10.98;;;12.50;99.90;;;;;;5087793;28;20493;-73
2021/12/30 04:53:13;;;;;;;21.58;10.57;;;12.50;99.90;;;;;;5074999;28;20032;-73
2021/12/30 04:55:39;;;;;;;21.35;10.93;;;12.50;99.90;;;;;;5093294;28;20535;-73
2021/12/30 04:58:05;;;;;;;11.68;7.82;;;12.50;99.90;;;;;;5093067;28;20035;-73
2021/12/30 05:00:32;;;;;;;12.75;7.47;;;12.40;99.90;;;;;;5093181;28;20047;-73
2021/12/30 05:03:14;;;;;;;13.25;7.35;;;12.50;99.90;;;;;;5092930;28;20032;-73
2021/12/30 05:05:41;;;;;;;9.32;6.18;;;12.50;99.90;;;;;;5092676;28;20048;-73
2021/12/30 05:08:07;;;;;;;6.90;4.70;;;12.50;99.90;;;;;;5074496;28;20485;-73
2021/12/30 05:10:34;;;;;;;11.05;5.60;;;12.50;99.90;;;;;;5092713;28;20028;-73
2021/12/30 05:13:01;;;;;;;5.65;3.90;;;12.40;99.90;;;;;;5092790;28;20507;-73
2021/12/30 05:15:27;;;;;;;7.30;3.92;;;12.40;99.90;;;;;;5092575;28;20032;-73
2021/12/30 05:17:53;;;;;;;5.65;3.38;;;12.40;99.90;;;;;;5092709;28;20035;-73
2021/12/30 05:20:18;;;;;;;7.80;3.88;;;12.50;99.90;;;;;;5092317;28;20074;-73
2021/12/30 05:22:44;;;;;;;7.45;4.22;;;12.40;99.90;;;;;;5092633;28;20540;-73
2021/12/30 05:25:11;;;;;;;8.88;4.03;;;12.40;99.90;;;;;;5092558;28;20400;-73
2021/12/30 05:27:37;;;;;;;6.63;4.00;;;12.40;99.90;;;;;;5092371;28;20074;-73
2021/12/30 05:30:08;;;;;;;7.38;4.15;;;12.50;99.90;;;;;;5092382;28;20352;-73
2021/12/30 05:32:34;;;;;;;9.57;4.40;;;12.40;99.90;;;;;;5092231;28;20485;-73
2021/12/30 05:35:01;;;;;;;10.40;4.13;;;12.40;99.90;;;;;;5091672;28;20030;-73
2021/12/30 05:37:27;;;;;;;12.07;4.55;;;12.40;99.90;;;;;;5092317;28;20024;-73
2021/12/30 05:39:52;;;;;;;11.20;4.30;;;12.40;99.90;;;;;;5092040;28;20102;-74
2021/12/30 05:42:19;;;;;;;16.58;5.25;;;12.40;99.90;;;;;;5073966;28;20484;-73
2021/12/30 05:44:44;;;;;;;15.75;6.78;;;12.40;99.90;;;;;;5092298;28;20024;-74
2021/12/30 05:47:10;;;;;;;16.52;7.28;;;12.20;99.90;;;;;;5092180;28;20095;-73
2021/12/30 05:49:35;;;;;;;22.73;8.48;;;12.50;99.90;;;;;;5086142;28;20086;-74
2021/12/30 05:52:01;;;;;;;19.58;7.82;;;12.50;99.90;;;;;;5072044;28;20107;-74
2021/12/30 05:54:27;;;;;;;24.70;8.93;;;12.50;99.90;;;;;;5071584;28;20303;-73
2021/12/30 05:56:52;;;;;;;21.83;7.95;;;12.40;99.90;;;;;;5071887;28;20065;-73
2021/12/30 05:59:18;;;;;;;13.95;6.45;;;12.40;99.90;;;;;;5053624;28;20047;-74
2021/12/30 06:01:43;;;;;;;20.30;7.45;;;12.40;99.90;;;;;;5070449;28;20020;-73
2021/12/30 06:04:09;;;;;;;17.98;6.85;;;12.50;99.90;;;;;;5071669;28;20025;-73
2021/12/30 06:06:35;;;;;;;20.50;8.15;;;12.40;99.90;;;;;;5071222;28;20024;-73
2021/12/30 06:09:00;;;;;;;19.45;7.03;;;12.40;99.90;;;;;;5070273;28;20501;-73
2021/12/30 06:11:26;;;;;;;21.15;8.02;;;12.40;99.90;;;;;;5071872;28;20170;-73
2021/12/30 06:13:51;;;;;;;20.77;7.57;;;12.50;99.90;;;;;;5074765;28;20401;-73
2021/12/30 06:16:17;;;;;;;23.33;9.50;;;12.50;99.90;;;;;;5091949;28;20031;-73
2021/12/30 06:18:43;;;;;;;24.45;9.98;;;12.40;99.90;;;;;;5091765;28;20028;-73
2021/12/30 06:21:08;;;;;;;27.42;11.35;;;12.40;99.90;;;;;;5091488;28;20024;-73
2021/12/30 06:23:34;;;;;;;27.30;12.63;;;12.50;99.90;;;;;;5091766;28;20130;-73
2021/12/30 06:25:59;;;;;;;22.02;11.68;;;12.50;99.90;;;;;;5091741;28;20099;-73
2021/12/30 06:28:25;;;;;;;19.55;8.77;;;;;;;;;;5091641;28;20047;-73
2021/12/30 06:30:51;;;;;;;15.65;8.90;;;12.50;99.90;;;;;;5091800;28;20359;-73
2021/12/30 06:33:16;;;;;;;12.50;7.30;;;12.50;99.90;;;;;;5073447;28;20272;-73
2021/12/30 06:35:42;;;;;;;18.45;8.27;;;12.50;99.90;;;;;;5091666;28;20020;-73
2021/12/30 06:38:08;;;;;;;14.95;8.02;;;12.50;99.90;;;;;;5091698;28;20028;-73
2021/12/30 06:40:33;;;;;;;11.68;6.88;;;12.50;99.90;;;;;;5091538;28;20032;-74
2021/12/30 06:42:59;;;;;;;10.30;6.00;;;12.50;99.90;;;;;;5091732;28;20511;-74
2021/12/30 06:45:24;;;;;;;12.88;5.70;;;12.50;99.90;;;;;;5093802;28;20510;-74
2021/12/30 06:47:50;;;;;;;10.38;4.90;;;;;;;;;;5095685;28;20020;-73
2021/12/30 06:50:17;;;;;;;12.52;5.35;;;12.50;99.90;;;;;;5077130;28;20454;-73
2021/12/30 06:52:46;;;;;;;12.05;5.40;;;12.50;99.90;;;;;;5095830;28;20039;-73
2021/12/30 06:55:12;;;;;;;11.48;5.30;;;12.40;99.90;;;;;;5095420;28;20039;-73
2021/12/30 06:57:39;;;;;;;10.52;4.45;;;12.50;99.90;;;;;;5095395;28;20023;-73
2021/12/30 07:00:07;;;;;;;13.10;4.55;;;12.40;99.90;;;;;;5095448;28;20033;-73
2021/12/30 07:02:34;;;;;;;10.48;5.25;;;12.40;99.90;;;;;;5076872;28;20021;-73
2021/12/30 07:05:00;;;;;;;6.90;3.97;;;12.40;99.90;;;;;;5100814;28;20027;-73
2021/12/30 07:07:25;;;;;;;9.50;3.80;;;12.40;99.90;;;;;;5105081;28;20020;-73
2021/12/30 07:09:51;;;;;;;8.45;4.55;;;12.50;99.90;;;;;;5104349;28;20026;-73
2021/12/30 07:12:17;;;;;;;8.55;3.72;;;12.50;99.90;;;;;;5106074;28;20034;-73
2021/12/30 07:14:43;;;;;;;10.20;4.85;;;12.50;99.90;;;;;;5104306;28;20472;-73
2021/12/30 07:17:08;;;;;;;12.50;4.53;;;12.50;99.90;;;;;;5104675;28;20347;-73
2021/12/30 07:19:34;;;;;;;9.68;4.53;;;12.40;99.90;;;;;;5105742;28;20054;-73
2021/12/30 07:22:00;;;;;;;14.68;5.55;;;12.40;99.90;;;;;;5106904;28;20485;-74
2021/12/30 07:24:26;;;;;;;7.55;3.90;;;;;;;;;;5095762;28;20019;-73
2021/12/30 07:26:52;;;;;;;10.15;4.43;;;12.40;99.90;;;;;;5102916;28;20040;-73
2021/12/30 07:29:18;;;;;;;10.15;4.68;;;12.40;99.90;;;;;;5105442;28;20067;-73
2021/12/30 07:31:44;;;;;;;7.70;3.40;;;12.60;99.90;;;;;;5104813;28;20031;-73
2021/12/30 07:34:10;;;;;;;12.15;4.35;;;12.60;99.90;;;;;;5103582;28;20381;-73
2021/12/30 07:36:35;;;;;;;10.10;5.30;;;12.50;99.90;;;;;;5115182;28;20055;-74
2021/12/30 07:39:01;;;;;;;9.50;4.60;;;12.50;99.90;;;;;;5096266;28;20028;-73
2021/12/30 07:41:27;;;;;;;12.00;6.22;;;12.60;99.90;;;;;;5076454;28;20071;-73
2021/12/30 07:43:53;;;;;;;13.52;5.53;;;12.60;99.90;;;;;;5094589;28;20052;-73
2021/12/30 07:46:18;;;;;;;13.45;5.97;;;12.70;99.90;;;;;;5094648;28;20024;-74
2021/12/30 07:48:44;;;;;;;16.90;7.47;;;12.70;99.90;;;;;;5094420;28;20028;-73
2021/12/30 07:51:09;;;;;;;21.48;9.40;;;12.60;99.90;;;;;;5091604;28;20036;-73
2021/12/30 07:53:37;;;;;;;17.02;9.18;;;12.80;99.90;;;;;;5064169;28;20057;-73
2021/12/30 07:56:03;;;;;;;20.55;10.25;;;12.80;99.90;;;;;;5087144;28;20028;-73
2021/12/30 07:58:29;;;;;;;17.63;10.00;;;12.80;99.90;;;;;;5091175;28;20093;-73
2021/12/30 08:00:55;;;;;;;25.10;10.63;;;12.90;99.90;;;;;;5095785;28;20080;-73
2021/12/30 08:03:21;;;;;;;21.67;12.25;;;12.90;99.90;;;;;;5096663;28;20027;-73
2021/12/30 08:05:48;;;;;;;24.55;11.40;;;12.90;99.90;;;;;;5101571;28;20336;-73
2021/12/30 08:08:14;;;;;;;23.17;11.30;;;12.90;99.90;;;;;;5103552;28;20348;-76
2021/12/30 08:10:39;;;;;;;21.33;12.35;;;13.00;99.90;;;;;;5105361;28;20039;-76
2021/12/30 08:13:05;;;;;;;23.80;12.45;;;13.00;99.90;;;;;;5103050;28;20032;-76
2021/12/30 08:15:30;;;;;;;25.83;13.02;;;13.00;99.90;;;;;;5103589;28;20036;-76
2021/12/30 08:17:56;;;;;;;21.10;12.75;;;13.10;99.90;;;;;;5100090;28;20472;-76
2021/12/30 08:20:22;;;;;;;24.17;12.93;;;13.10;99.90;;;;;;5100857;28;20027;-77
2021/12/30 08:22:50;;;;;;;22.52;12.82;;;13.10;99.90;;;;;;5105313;28;20042;-76
2021/12/30 08:25:16;;;;;;;21.95;12.32;;;13.20;99.90;;;;;;5088726;28;20091;-77
2021/12/30 08:27:43;;;;;;;26.60;12.82;;;13.20;99.90;;;;;;5112043;28;20019;-76
2021/12/30 08:30:12;;;;;;;19.35;10.50;;;13.20;99.90;;;;;;5096823;28;20036;-76
2021/12/30 08:32:39;;;;;;;17.27;9.80;;;13.30;99.90;;;;;;5102433;28;20052;-76
2021/12/30 08:35:07;;;;;;;18.90;9.10;;;13.30;99.90;;;;;;5096781;28;20050;-77
2021/12/30 08:37:34;;;;;;;17.52;10.68;;;13.30;99.90;;;;;;5113108;28;20031;-76
2021/12/30 08:40:01;;;;;;;15.10;7.78;;;13.20;99.90;;;;;;5112785;28;20081;-77
2021/12/30 08:42:28;;;;;;;19.95;8.32;;;13.30;99.90;;;;;;5108075;28;20435;-76
2021/12/30 08:44:55;;;;;;;14.48;5.72;;;13.30;99.90;;;;;;5101940;28;20028;-77
2021/12/30 08:47:22;;;;;;;19.08;6.20;;;13.30;99.90;;;;;;5105061;28;20081;-77
2021/12/30 08:49:49;;;;;;;18.75;5.53;;;13.30;99.90;;;;;;5096815;28;20047;-76
2021/12/30 08:52:18;;;;;;;18.48;5.35;;;13.20;99.90;;;;;;5100684;28;20035;-77
2021/12/30 08:54:45;;;;;;;22.27;5.90;;;13.20;99.90;;;;;;5101361;28;20078;-77
2021/12/30 08:57:11;;;;;;;19.45;4.30;;;13.20;99.90;;;;;;5101748;28;20050;-77
2021/12/30 08:59:37;;;;;;;17.48;5.57;;;13.30;99.90;;;;;;5093003;28;20036;-76
2021/12/30 09:02:04;;;;;;;22.00;4.55;;;13.30;99.90;;;;;;5093374;28;20111;-77
2021/12/30 09:04:32;;;;;;;22.88;5.95;;;13.30;99.90;;;;;;5092947;28;20024;-76
2021/12/30 09:07:00;;;;;;;25.42;5.00;;;13.40;99.90;;;;;;5074725;28;20020;-76
2021/12/30 09:09:26;;;;;;;20.55;4.60;;;13.40;99.90;;;;;;5092767;28;20024;-76
2021/12/30 09:11:53;;;;;;;19.80;5.40;;;13.40;99.90;;;;;;5092989;28;20420;-75
2021/12/30 09:14:18;;;;;;;23.02;5.68;;;13.40;99.90;;;;;;5074410;28;20149;-72
2021/12/30 09:16:44;;;;;;;19.90;7.07;;;13.40;99.90;;;;;;5074525;28;20509;-72
2021/12/30 09:19:11;;;;;;;22.52;6.68;;;13.30;99.90;;;;;;5092686;28;20020;-73
2021/12/30 09:21:38;;;;;;;28.00;7.20;;;13.50;99.90;;;;;;5092701;28;20054;-73
2021/12/30 09:24:05;;;;;;;22.45;6.97;;;13.50;99.90;;;;;;5092582;28;20019;-73
2021/12/30 09:26:31;;;;;;;18.23;7.03;;;13.50;99.90;;;;;;5101846;28;20636;-73
2021/12/30 09:28:57;;;;;;;19.80;7.07;;;13.50;99.90;;;;;;5102351;28;20127;-73
2021/12/30 09:31:22;;;;;;;19.20;6.65;;;13.50;99.90;;;;;;5103255;28;20038;-73
2021/12/30 09:33:49;;;;;;;18.35;7.15;;;13.50;99.90;;;;;;5101326;28;20107;-73
2021/12/30 09:36:14;;;;;;;16.98;7.07;;;13.60;99.90;;;;;;5084151;28;20110;-73
2021/12/30 09:38:40;;;;;;;18.38;7.13;;;13.60;99.90;;;;;;5084249;28;20225;-73
2021/12/30 09:41:06;;;;;;;18.23;7.05;;;13.60;99.90;;;;;;5103625;28;20046;-73
2021/12/30 09:43:32;;;;;;;24.05;7.30;;;13.60;99.90;;;;;;5101154;28;20024;-73
2021/12/30 09:45:57;;;;;;;15.35;7.18;;;13.60;99.90;;;;;;5100710;28;20407;-73
2021/12/30 09:48:23;;;;;;;15.68;7.05;;;13.60;99.90;;;;;;5102400;28;20094;-73
2021/12/30 09:50:52;;;;;;;27.83;9.38;;;13.70;99.90;;;;;;5101359;28;20031;-72
2021/12/30 09:53:21;;;;;;;21.52;8.90;;;13.70;99.90;;;;;;5102508;28;20129;-73
2021/12/30 09:55:47;;;;;;;17.55;7.90;;;13.70;99.90;;;;;;5101861;28;20046;-73
2021/12/30 09:58:14;;;;;;;18.60;7.63;;;13.80;99.90;;;;;;5088747;28;20130;-73
2021/12/30 10:00:40;;;;;;;23.05;7.75;;;13.80;99.90;;;;;;5075936;28;20037;-78
2021/12/30 10:03:06;;;;;;;18.08;8.10;;;13.80;99.90;;;;;;5085543;28;20066;-77
2021/12/30 10:05:34;;;;;;;17.55;6.97;;;13.80;99.90;;;;;;5092903;28;20020;-84
2021/12/30 10:08:25;;;;;;;19.58;7.63;;;13.90;99.90;;;;;;5093632;28;20020;-85
2021/12/30 10:10:56;;;;;;;15.02;6.05;;;13.90;99.90;;;;;;5074934;28;20059;-80
2021/12/30 10:13:29;;;;;;;15.53;6.10;;;13.80;99.90;;;;;;5093693;28;20035;-89
2021/12/30 10:15:58;;;;;;;27.30;5.47;;;13.90;99.90;;;;;;5093411;28;20103;-78
2021/12/30 10:18:40;;;;;;;19.35;6.10;;;13.90;99.90;;;;;;5093603;28;20028;-82
2021/12/30 10:21:22;;;;;;;20.27;5.75;;;13.80;99.90;;;;;;5082381;28;20808;-83
2021/12/30 10:23:49;;;;;;;;;;;13.90;99.90;;;;;;5080950;28;20152;-82
2021/12/30 10:26:15;;;;;;;13.77;5.13;;;13.90;99.90;;;;;;5084553;28;19911;-81
2021/12/30 10:28:43;;;;;;;20.20;5.00;;;14.00;99.90;;;;;;5095475;28;20044;-78
2021/12/30 10:31:12;;;;;;;14.95;3.63;;;14.00;99.90;;;;;;5092278;28;20020;-76
2021/12/30 10:34:11;;;;;;;18.17;4.95;;;14.00;99.90;;;;;;5074224;28;20028;-78
2021/12/30 10:36:39;;;;;;;16.08;4.22;;;;;;;;;;4990490;28;20047;-80
2021/12/30 10:39:28;;;;;;;18.25;4.63;;;14.00;99.90;;;;;;4990503;28;20034;-77
2021/12/30 10:42:06;;;;;;;12.35;3.80;;;13.90;99.90;;;;;;4990373;28;20035;-76
2021/12/30 10:45:04;;;;;;;16.10;4.20;;;13.90;99.90;;;;;;4990555;28;20098;-76
2021/12/30 10:47:49;;;;;;;12.68;3.50;;;13.90;99.90;;;;;;4913812;29;20463;-76
2021/12/30 10:50:15;;;;;;;15.82;3.80;;;13.90;99.90;;;;;;4913956;29;20380;-74
2021/12/30 10:53:01;;;;;;;13.50;4.13;;;13.90;99.90;;;;;;4898240;29;20092;-76
2021/12/30 10:55:27;;;;;;;19.05;5.00;;;13.90;99.90;;;;;;4897791;29;20381;-79
2021/12/30 10:57:53;;;;;;;21.85;5.55;;;13.90;99.90;;;;;;4926058;29;20107;-77
2021/12/30 11:00:34;;;;;;;14.90;4.57;;;13.80;99.90;;;;;;4925061;29;20083;-78
2021/12/30 11:03:27;;;;;;;17.52;4.68;;;13.80;99.90;;;;;;4919424;29;20020;-78
2021/12/30 11:06:17;;;;;;;14.95;4.22;;;13.90;99.90;;;;;;4933158;29;20042;-78
2021/12/30 11:08:43;;;;;;;15.65;4.10;;;13.90;99.90;;;;;;4933090;29;20035;-77
2021/12/30 11:11:28;;;;;;;16.17;4.45;;;13.80;99.90;;;;;;4939135;28;20047;-77
2021/12/30 11:14:06;;;;;;;15.23;4.53;;;13.90;99.90;;;;;;5026816;28;20044;-76
2021/12/30 11:16:33;;;;;;;16.80;5.20;;;13.80;99.90;;;;;;5030407;28;20480;-80
2021/12/30 11:18:59;;;;;;;17.83;5.32;;;13.90;99.90;;;;;;5014217;28;20065;-77
2021/12/30 11:21:34;;;;;;;15.82;4.82;;;13.90;99.90;;;;;;5015160;28;20033;-77
2021/12/30 11:24:01;;;;;;;13.75;4.93;;;13.90;99.90;;;;;;5045830;28;20029;-78
2021/12/30 11:26:27;;;;;;;15.20;5.43;;;13.90;99.90;;;;;;5072380;28;20103;-79
2021/12/30 11:28:54;;;;;;;13.73;4.60;;;13.90;99.90;;;;;;5054121;28;20098;-78
2021/12/30 11:31:20;;;;;;;15.38;4.80;;;13.90;99.90;;;;;;5072473;28;20027;-78
2021/12/30 11:33:46;;;;;;;13.73;4.97;;;13.90;99.90;;;;;;5086774;28;20023;-77
2021/12/30 11:36:11;;;;;;;25.70;6.32;;;13.90;99.90;;;;;;5066553;28;20464;-76
2021/12/30 11:38:38;;;;;;;14.40;5.28;;;13.80;99.90;;;;;;5075818;28;20174;-78
2021/12/30 11:41:04;;;;;;;19.33;5.30;;;13.80;99.90;;;;;;5057709;28;20036;-81
2021/12/30 11:43:44;;;;;;;20.83;6.68;;;13.90;99.90;;;;;;5075881;28;20128;-81
2021/12/30 11:46:29;;;;;;;12.90;5.38;;;;;;;;;;5090186;28;20347;-80
2021/12/30 11:48:57;;;;;;;19.27;5.75;;;13.90;99.90;;;;;;5080115;28;20080;-80
2021/12/30 11:51:23;;;;;;;16.98;6.00;;;13.90;99.90;;;;;;5110934;28;20023;-80
2021/12/30 11:53:50;;;;;;;21.25;5.47;;;13.80;99.90;;;;;;5103993;28;20020;-82
2021/12/30 11:56:25;;;;;;;20.92;6.82;;;13.80;99.90;;;;;;5115355;28;20450;-79
2021/12/30 11:58:55;;;;;;;17.40;6.75;;;13.80;99.90;;;;;;5116053;28;20028;-79
2021/12/30 12:01:40;;;;;;;16.60;6.65;;;13.70;99.90;;;;;;5101385;28;20338;-81
2021/12/30 12:04:11;;;;;;;22.75;6.80;;;13.70;99.90;;;;;;5077269;28;20021;-80
2021/12/30 12:06:53;;;;;;;17.45;5.65;;;13.70;99.90;;;;;;5102255;28;20038;-80
2021/12/30 12:09:22;;;;;;;20.40;6.88;;;13.60;99.90;;;;;;5115749;28;20053;-80
2021/12/30 12:11:57;;;;;;;23.23;7.07;;;13.60;99.90;;;;;;5115975;28;20429;-81
2021/12/30 12:14:24;;;;;;;20.08;7.18;;;13.60;99.90;;;;;;5097147;28;20035;-81
2021/12/30 12:17:00;;;;;;;16.85;7.80;;;13.60;99.90;;;;;;5078924;28;20097;-81
2021/12/30 12:19:36;;;;;;;17.60;6.80;;;13.60;99.90;;;;;;5091963;28;20016;-78
2021/12/30 12:22:04;;;;;;;16.27;6.97;;;13.60;99.90;;;;;;5097067;28;20023;-78
2021/12/30 12:24:34;;;;;;;15.43;6.05;;;13.60;99.90;;;;;;5112752;28;20016;-78
2021/12/30 12:27:07;;;;;;;18.45;6.93;;;13.70;99.90;;;;;;5088537;28;20358;-78
2021/12/30 12:29:34;;;;;;;21.52;6.65;;;13.70;99.90;;;;;;5111572;28;20048;-77
2021/12/30 12:32:06;;;;;;;13.65;6.10;;;13.80;99.90;;;;;;5100169;28;20124;-79
2021/12/30 12:34:33;;;;;;;21.55;6.43;;;13.80;99.90;;;;;;5094152;28;20020;-78
2021/12/30 12:36:59;;;;;;;19.10;6.90;;;13.80;99.90;;;;;;5094114;28;20023;-78
2021/12/30 12:39:43;;;;;;;15.95;5.65;;;13.80;99.90;;;;;;5076230;28;20131;-79